Time;durP1;ratioP1;P1;durP2;ratioP2;P2;SDS_P1;SDS_P2;PMS_P1;PMS_P2;Temp;Humidity;BMP_temperature;BMP_pressure;BME280_temperature;BME280_humidity;BME280_pressure;Samples;Min_cycle;Max_cycle;Signal;HPM_P1;HPM_P2
2021/12/21 00:00:59;;;;;;;28.67;9.88;;;;;;;0.46;87.09;102882.03;5096882;28;20404;-63
2021/12/21 00:03:25;;;;;;;27.35;9.77;;;;;;;0.52;87.11;102880.91;5096903;28;20051;-63
2021/12/21 00:05:51;;;;;;;22.25;10.00;;;;;;;0.55;86.68;102884.16;5096779;28;20047;-62
2021/12/21 00:08:17;;;;;;;30.83;10.27;;;;;;;0.67;86.68;102872.59;5096847;28;20060;-62
2021/12/21 00:10:46;;;;;;;30.55;9.93;;;;;;;0.60;86.93;102871.22;5078620;28;20027;-63
2021/12/21 00:13:40;;;;;;;26.08;9.15;;;;;;;0.52;86.86;102860.56;5096698;28;20039;-62
2021/12/21 00:18:44;;;;;;;24.90;9.30;;;;;;;0.41;86.67;102859.34;5097447;28;20130;-63
2021/12/21 00:23:52;;;;;;;23.73;9.18;;;;;;;0.35;86.98;102859.63;5097452;28;20034;-63
2021/12/21 00:26:20;;;;;;;26.98;9.68;;;;;;;0.33;87.15;102856.31;5078334;28;20093;-63
2021/12/21 00:31:17;;;;;;;23.30;9.75;;;;;;;0.27;87.28;102851.50;5096656;28;20032;-63
2021/12/21 00:33:45;;;;;;;31.98;9.63;;;;;;;0.24;87.19;102846.56;5096389;28;20386;-63
2021/12/21 00:36:13;;;;;;;24.10;9.13;;;;;;;0.22;86.47;102848.34;5078145;28;20125;-62
2021/12/21 00:38:38;;;;;;;22.45;8.93;;;;;;;0.40;86.11;102845.00;5078004;28;20020;-63
2021/12/21 00:41:04;;;;;;;30.80;9.55;;;;;;;0.44;86.17;102845.66;5096191;28;20078;-63
2021/12/21 00:43:29;;;;;;;26.70;9.63;;;;;;;0.41;86.62;102841.53;5077797;28;20051;-64
2021/12/21 00:45:55;;;;;;;26.73;9.25;;;;;;;0.35;86.59;102841.00;5096029;28;20023;-63
2021/12/21 00:48:26;;;;;;;26.48;10.23;;;;;;;0.21;87.08;102834.00;5095999;28;20421;-63
2021/12/21 00:50:52;;;;;;;28.85;10.13;;;;;;;0.18;87.00;102834.13;5096531;28;20024;-63
2021/12/21 00:53:17;;;;;;;30.13;9.48;;;;;;;0.18;86.90;102831.59;5078067;28;20501;-63
2021/12/21 00:55:42;;;;;;;23.85;8.80;;;;;;;0.20;87.01;102842.50;5095954;28;20412;-62
2021/12/21 00:58:08;;;;;;;23.50;8.73;;;;;;;0.12;87.12;102845.41;5095907;28;20485;-62
2021/12/21 01:00:33;;;;;;;29.15;8.98;;;;;;;0.08;86.79;102841.31;5096254;28;20054;-63
2021/12/21 01:03:05;;;;;;;20.95;9.05;;;;;;;0.08;87.38;102843.06;5077344;28;20035;-62
2021/12/21 01:05:55;;;;;;;24.08;9.40;;;;;;;0.09;86.87;102839.63;5095890;28;20099;-64
2021/12/21 01:08:23;;;;;;;24.80;10.00;;;;;;;0.09;87.28;102842.19;5095359;28;20032;-63
2021/12/21 01:13:31;;;;;;;21.42;8.98;;;;;;;0.07;87.16;102842.22;5095766;28;20032;-62
2021/12/21 01:16:07;;;;;;;21.98;9.32;;;;;;;0.12;87.19;102854.75;5095559;28;20385;-63
2021/12/21 01:18:53;;;;;;;27.92;9.50;;;;;;;0.14;86.79;102841.06;5077365;28;20024;-63
2021/12/21 01:21:22;;;;;;;23.67;8.70;;;;;;;0.17;86.52;102835.84;5095819;28;20521;-63
2021/12/21 01:26:34;;;;;;;30.27;8.80;;;;;;;0.14;86.84;102832.59;5095853;28;20036;-65
2021/12/21 01:29:12;;;;;;;28.88;9.38;;;;;;;0.08;86.41;102832.88;5077226;28;20047;-61
2021/12/21 01:42:20;;;;;;;29.00;8.98;;;;;;;-0.07;86.51;102825.03;5095015;28;20498;-63
2021/12/21 01:50:14;;;;;;;28.45;8.68;;;;;;;-0.07;86.74;102814.06;5094950;28;20039;-63
2021/12/21 01:52:39;;;;;;;20.55;8.13;;;;;;;-0.07;86.35;102814.88;5094836;28;20016;-63
2021/12/21 01:55:06;;;;;;;18.60;8.25;;;;;;;-0.11;86.67;102813.38;5076584;28;20028;-61
2021/12/21 01:57:31;;;;;;;22.52;8.88;;;;;;;-0.12;87.65;102811.69;5094771;28;20028;-62
2021/12/21 01:59:56;;;;;;;20.67;8.43;;;;;;;-0.14;86.97;102808.44;5094532;28;20036;-64
2021/12/21 02:02:22;;;;;;;21.80;8.05;;;;;;;-0.18;86.74;102809.44;5094671;28;20024;-62
2021/12/21 02:04:48;;;;;;;17.08;8.20;;;;;;;-0.17;86.85;102803.47;5094555;28;20061;-62
2021/12/21 02:07:14;;;;;;;18.58;7.82;;;;;;;-0.22;86.88;102807.94;5094548;28;20099;-62
2021/12/21 02:09:40;;;;;;;21.17;8.10;;;;;;;-0.23;87.06;102811.38;5094497;28;20103;-62
2021/12/21 02:12:17;;;;;;;21.75;8.55;;;;;;;-0.29;87.20;102809.06;5094941;28;20093;-62
2021/12/21 02:14:52;;;;;;;25.02;8.88;;;;;;;-0.24;87.31;102805.44;5093918;28;20093;-63
2021/12/21 02:22:42;;;;;;;25.38;8.50;;;;;;;-0.19;87.08;102812.88;5095102;28;20381;-61
2021/12/21 02:28:11;;;;;;;22.30;8.63;;;;;;;-0.24;86.85;102802.09;5062866;28;20462;-62
2021/12/21 02:30:41;;;;;;;19.00;7.63;;;;;;;-0.24;86.36;102797.81;5094206;28;20078;-62
2021/12/21 02:33:06;;;;;;;25.33;7.95;;;;;;;-0.28;86.35;102798.84;5075891;28;20032;-62
2021/12/21 02:35:32;;;;;;;17.85;7.72;;;;;;;-0.31;86.04;102793.91;5075880;28;20431;-62
2021/12/21 02:37:57;;;;;;;26.30;8.32;;;;;;;-0.29;86.16;102794.69;5094512;28;20039;-63
2021/12/21 02:40:22;;;;;;;21.90;8.40;;;;;;;-0.39;86.24;102793.41;5094198;28;20351;-62
2021/12/21 02:42:48;;;;;;;18.38;7.72;;;;;;;-0.37;86.66;102794.19;5093748;28;20094;-65
2021/12/21 02:45:13;;;;;;;20.48;8.10;;;;;;;-0.38;86.15;102789.97;5075727;28;20386;-63
2021/12/21 02:47:39;;;;;;;17.30;8.10;;;;;;;-0.49;86.67;102784.53;5075800;28;20073;-62
2021/12/21 02:50:05;;;;;;;15.25;7.38;;;;;;;-0.44;86.81;102790.25;5075734;28;20085;-61
2021/12/21 02:52:31;;;;;;;19.42;8.02;;;;;;;-0.48;86.89;102789.56;5093987;28;20020;-62
2021/12/21 02:54:56;;;;;;;18.83;7.90;;;;;;;-0.47;86.75;102788.66;5075665;28;20043;-62
2021/12/21 02:57:22;;;;;;;16.50;7.57;;;;;;;-0.46;87.02;102782.69;5093727;28;20386;-64
2021/12/21 02:59:47;;;;;;;21.67;8.77;;;;;;;-0.50;86.67;102793.88;5093576;28;20035;-62
2021/12/21 03:02:12;;;;;;;17.65;7.47;;;;;;;-0.47;87.02;102790.38;5075569;28;20027;-63
2021/12/21 03:04:42;;;;;;;21.05;7.53;;;;;;;-0.56;86.70;102794.13;5093694;28;20019;-63
2021/12/21 03:09:55;;;;;;;16.27;7.60;;;;;;;-0.49;87.08;102787.06;5094484;28;20031;-63
2021/12/21 03:14:48;;;;;;;20.77;7.50;;;;;;;-0.47;86.42;102792.91;5094125;28;20032;-63
2021/12/21 03:17:14;;;;;;;19.05;8.20;;;;;;;-0.46;86.18;102786.97;5093785;28;20371;-61
2021/12/21 03:19:39;;;;;;;18.25;7.90;;;;;;;-0.53;86.45;102788.09;5093446;28;20024;-62
2021/12/21 03:22:06;;;;;;;17.30;8.18;;;;;;;-0.54;86.18;102789.81;5075371;28;20111;-62
2021/12/21 03:24:32;;;;;;;20.63;8.40;;;;;;;-0.56;86.71;102789.06;5093468;28;20466;-62
2021/12/21 03:26:58;;;;;;;17.48;7.60;;;;;;;-0.54;86.59;102782.19;5077200;28;20030;-61
2021/12/21 03:29:24;;;;;;;15.75;7.93;;;;;;;-0.57;86.11;102782.34;5097625;28;20098;-62
2021/12/21 03:31:49;;;;;;;20.08;7.82;;;;;;;-0.59;86.28;102786.66;5079436;28;20024;-63
2021/12/21 03:34:15;;;;;;;21.38;7.00;;;;;;;-0.65;86.28;102788.63;5098089;28;20039;-62
2021/12/21 03:36:41;;;;;;;22.77;7.32;;;;;;;-0.78;86.56;102770.53;5097397;28;20046;-62
2021/12/21 03:39:08;;;;;;;22.48;7.20;;;;;;;-0.66;86.78;102789.50;5079143;28;20016;-62
2021/12/21 03:41:38;;;;;;;22.05;7.78;;;;;;;-0.65;86.86;102781.81;5079012;28;20481;-64
2021/12/21 03:44:04;;;;;;;20.33;7.82;;;;;;;-0.65;86.54;102786.09;5079216;28;20024;-65
2021/12/21 03:46:32;;;;;;;20.55;7.95;;;;;;;-0.66;86.41;102781.88;5097248;28;20045;-64
2021/12/21 03:48:59;;;;;;;22.20;7.63;;;;;;;-0.71;86.42;102784.63;5097195;28;20380;-64
2021/12/21 03:51:25;;;;;;;19.95;7.93;;;;;;;-0.78;86.35;102788.28;5098056;28;20024;-66
2021/12/21 03:53:50;;;;;;;25.20;7.88;;;;;;;-0.77;86.33;102787.44;5079071;28;20077;-62
2021/12/21 03:58:45;;;;;;;17.98;7.70;;;;;;;-0.81;87.16;102783.34;5096920;28;20502;-63
2021/12/21 04:01:10;;;;;;;17.92;7.68;;;;;;;-0.69;86.82;102783.69;5097383;28;20047;-62
2021/12/21 04:03:36;;;;;;;20.38;8.27;;;;;;;-0.73;87.07;102779.59;5097091;28;20027;-62
2021/12/21 04:06:01;;;;;;;19.30;7.68;;;;;;;-0.71;86.78;102784.63;5096963;28;20028;-63
2021/12/21 04:08:27;;;;;;;21.30;7.65;;;;;;;-0.74;86.10;102783.03;5096824;28;20020;-62
2021/12/21 04:10:52;;;;;;;17.90;7.20;;;;;;;-0.82;86.23;102781.72;5096791;28;20028;-64
2021/12/21 04:13:18;;;;;;;21.27;8.75;;;;;;;-0.92;86.95;102769.41;5078551;28;20099;-63
2021/12/21 04:15:43;;;;;;;17.88;7.32;;;;;;;-0.96;86.89;102769.59;5096880;28;20118;-63
2021/12/21 04:18:13;;;;;;;20.40;7.18;;;;;;;-0.96;87.03;102762.78;5096781;28;20052;-62
2021/12/21 04:20:40;;;;;;;32.58;7.63;;;;;;;-0.99;87.00;102762.91;5096523;28;20488;-63
2021/12/21 04:23:06;;;;;;;23.67;7.65;;;;;;;-1.07;87.50;102772.53;5078492;28;20485;-63
2021/12/21 04:25:34;;;;;;;23.88;7.60;;;;;;;-0.92;87.34;102769.41;5096543;28;20027;-63
2021/12/21 04:28:00;;;;;;;19.73;7.10;;;;;;;-0.96;86.90;102762.78;5097065;28;20108;-63
2021/12/21 04:30:25;;;;;;;22.75;7.35;;;;;;;-0.92;87.04;102769.41;5096972;28;20111;-62
2021/12/21 04:32:51;;;;;;;19.38;7.53;;;;;;;-0.93;86.34;102764.38;5096686;28;20447;-63
2021/12/21 04:35:19;;;;;;;20.85;7.43;;;;;;;-1.01;87.36;102761.31;5096914;28;20027;-63
2021/12/21 04:37:54;;;;;;;16.30;7.03;;;;;;;-1.05;86.68;102764.88;5095758;28;20028;-63
2021/12/21 04:40:23;;;;;;;17.08;7.45;;;;;;;-1.13;87.43;102753.31;5096530;28;20378;-62
2021/12/21 04:42:49;;;;;;;20.13;7.80;;;;;;;-1.01;87.21;102757.06;5096267;28;20478;-63
2021/12/21 04:45:15;;;;;;;20.33;7.10;;;;;;;-1.20;87.97;102758.72;5096111;28;20097;-63
2021/12/21 04:47:40;;;;;;;20.63;7.82;;;;;;;-1.06;87.55;102750.56;5077964;28;20110;-62
2021/12/21 04:50:06;;;;;;;20.10;8.05;;;;;;;-1.02;87.30;102752.88;5096066;28;20020;-62
2021/12/21 04:52:31;;;;;;;17.58;7.22;;;;;;;-1.00;86.82;102752.84;5096060;28;20028;-64
2021/12/21 04:54:57;;;;;;;17.60;6.90;;;;;;;-0.95;86.68;102759.38;5096165;28;20454;-62
2021/12/21 04:57:22;;;;;;;18.45;7.57;;;;;;;-1.00;86.47;102752.84;5095930;28;20406;-62
2021/12/21 04:59:48;;;;;;;20.60;7.32;;;;;;;-0.98;86.79;102751.03;5096101;28;20044;-63
2021/12/21 05:02:13;;;;;;;24.70;7.65;;;;;;;-0.98;86.33;102753.59;5095836;28;20024;-61
2021/12/21 05:04:39;;;;;;;16.75;7.25;;;;;;;-1.02;86.21;102755.44;5095830;28;20024;-62
2021/12/21 05:07:05;;;;;;;18.60;7.03;;;;;;;-0.99;86.51;102755.28;5077557;28;20030;-61
2021/12/21 05:09:39;;;;;;;16.08;6.97;;;;;;;-1.05;86.71;102742.88;5095831;28;20478;-65
2021/12/21 05:12:07;;;;;;;18.55;7.20;;;;;;;-0.96;86.65;102746.75;5078406;28;20115;-63
2021/12/21 05:14:32;;;;;;;20.63;6.85;;;;;;;-0.99;86.27;102746.88;5095622;28;20016;-62
2021/12/21 05:16:58;;;;;;;19.08;7.57;;;;;;;-1.08;86.68;102753.16;5095586;28;20027;-62
2021/12/21 05:19:23;;;;;;;20.98;7.88;;;;;;;-1.04;86.73;102752.13;5095404;28;20086;-61
2021/12/21 05:21:49;;;;;;;19.27;6.78;;;;;;;-1.09;86.13;102746.44;5077334;28;20031;-62
2021/12/21 05:24:14;;;;;;;18.38;7.00;;;;;;;-1.05;86.58;102753.00;5095403;28;20028;-62
2021/12/21 05:26:39;;;;;;;17.98;7.57;;;;;;;-1.13;86.77;102743.16;5096024;28;20099;-64
2021/12/21 05:29:05;;;;;;;17.85;7.32;;;;;;;-1.00;86.71;102751.13;5095341;28;20098;-61
2021/12/21 05:31:30;;;;;;;16.80;7.18;;;;;;;-1.00;86.21;102748.59;5095254;28;20119;-63
2021/12/21 05:33:55;;;;;;;18.13;7.53;;;;;;;-1.00;86.03;102747.75;5095219;28;20024;-63
2021/12/21 05:36:21;;;;;;;16.83;7.28;;;;;;;-1.10;86.55;102749.00;5095413;28;20074;-62
2021/12/21 05:38:51;;;;;;;16.60;7.07;;;;;;;-1.18;86.89;102752.72;5076991;28;20474;-62
2021/12/21 05:41:25;;;;;;;19.48;7.20;;;;;;;-1.28;86.97;102748.06;5077264;28;20070;-63
2021/12/21 05:43:51;;;;;;;18.23;7.43;;;;;;;-1.18;87.27;102751.84;5095002;28;20040;-62
2021/12/21 05:46:16;;;;;;;15.98;7.53;;;;;;;-1.18;87.05;102754.41;5094986;28;20058;-63
2021/12/21 05:48:42;;;;;;;25.25;7.63;;;;;;;-1.14;86.58;102755.94;5094334;28;20020;-63
2021/12/21 05:51:07;;;;;;;20.85;7.10;;;;;;;-1.07;87.00;102752.25;5094471;28;20023;-64
2021/12/21 05:53:32;;;;;;;20.58;7.50;;;;;;;-1.10;86.67;102752.38;5094819;28;20492;-63
2021/12/21 05:55:58;;;;;;;18.42;7.28;;;;;;;-1.11;86.46;102755.81;5094764;28;20024;-63
2021/12/21 05:58:24;;;;;;;16.85;7.40;;;;;;;-1.09;86.62;102765.88;5094765;28;20024;-65
2021/12/21 06:00:50;;;;;;;18.98;7.50;;;;;;;-1.13;86.52;102762.66;5076453;28;20050;-62
2021/12/21 06:03:15;;;;;;;19.42;7.00;;;;;;;-1.09;86.62;102759.13;5094614;28;20023;-63
2021/12/21 06:05:40;;;;;;;22.92;7.47;;;;;;;-1.21;86.72;102765.53;5076384;28;20078;-63
2021/12/21 06:08:06;;;;;;;20.58;7.40;;;;;;;-1.19;87.32;102770.50;5094507;28;20458;-61
2021/12/21 06:10:39;;;;;;;18.25;7.32;;;;;;;-1.17;87.80;102768.75;5094517;28;20020;-62
2021/12/21 06:15:52;;;;;;;18.10;7.32;;;;;;;-1.10;86.64;102757.44;5094668;28;20252;-61
2021/12/21 06:26:15;;;;;;;22.00;7.60;;;;;;;-1.20;86.57;102762.09;5092184;28;20123;-63
2021/12/21 06:28:42;;;;;;;14.32;7.43;;;;;;;-1.29;86.86;102765.00;5074927;28;20047;-62
2021/12/21 06:31:08;;;;;;;17.55;7.18;;;;;;;-1.26;86.66;102764.88;5093632;28;20032;-62
2021/12/21 06:33:33;;;;;;;17.58;7.13;;;;;;;-1.23;86.42;102758.84;5094030;28;20086;-62
2021/12/21 06:35:59;;;;;;;21.17;8.15;;;;;;;-1.31;86.05;102755.78;5075856;28;20078;-62
2021/12/21 06:38:25;;;;;;;20.98;7.47;;;;;;;-1.31;86.54;102763.41;5094032;28;20028;-61
2021/12/21 06:40:52;;;;;;;16.25;7.07;;;;;;;-1.27;85.89;102762.38;5093968;28;20532;-63
2021/12/21 06:43:18;;;;;;;17.23;7.70;;;;;;;-1.27;86.02;102763.19;5093853;28;20048;-62
2021/12/21 06:53:55;;;;;;;23.30;8.55;;;;;;;-1.22;85.88;102763.84;5090276;28;20066;-62
2021/12/21 06:56:22;;;;;;;18.60;8.70;;;;;;;-1.19;86.37;102768.78;5094267;28;20039;-63
2021/12/21 06:58:48;;;;;;;19.00;7.97;;;;;;;-1.23;86.49;102769.81;5093666;28;20032;-63
2021/12/21 07:01:14;;;;;;;21.35;7.90;;;;;;;-1.17;86.15;102769.56;5093452;28;20129;-63
2021/12/21 07:03:41;;;;;;;21.17;7.55;;;;;;;-1.23;85.69;102759.66;5075579;28;20110;-63
2021/12/21 07:06:07;;;;;;;21.42;7.80;;;;;;;-1.33;85.79;102749.94;5093543;28;20024;-63
2021/12/21 07:08:44;;;;;;;19.58;7.97;;;;;;;-1.21;86.29;102754.53;5093456;28;20051;-62
2021/12/21 07:11:20;;;;;;;25.35;8.73;;;;;;;-1.20;85.79;102748.56;5075366;28;20024;-63
2021/12/21 07:19:15;;;;;;;20.40;7.95;;;;;;;-1.34;85.85;102756.72;5094468;28;20389;-61
2021/12/21 07:21:41;;;;;;;17.38;7.68;;;;;;;-1.45;85.91;102741.13;5076663;28;20016;-63
2021/12/21 07:24:06;;;;;;;22.02;7.78;;;;;;;-1.51;86.46;102756.56;5075605;28;20445;-63
2021/12/21 07:26:32;;;;;;;25.50;7.90;;;;;;;-1.43;86.50;102762.19;5093364;28;20024;-63
2021/12/21 07:28:57;;;;;;;20.00;7.80;;;;;;;-1.54;86.14;102752.44;5074717;28;20016;-62
2021/12/21 07:31:22;;;;;;;20.23;8.00;;;;;;;-1.40;85.53;102757.81;5092973;28;20032;-61
2021/12/21 07:33:48;;;;;;;20.95;7.40;;;;;;;-1.53;86.40;102759.16;5092146;28;20493;-63
2021/12/21 07:36:13;;;;;;;21.90;7.65;;;;;;;-1.46;86.19;102758.03;5091573;28;20106;-62
2021/12/21 07:38:39;;;;;;;14.50;7.38;;;;;;;-1.41;86.33;102760.38;5091919;28;20106;-63
2021/12/21 07:41:04;;;;;;;22.80;7.88;;;;;;;-1.40;85.50;102762.88;5092795;28;20031;-62
2021/12/21 07:43:30;;;;;;;18.95;8.13;;;;;;;-1.39;85.74;102761.97;5093098;28;20175;-63
2021/12/21 07:45:55;;;;;;;16.90;7.75;;;;;;;-1.37;85.70;102767.00;5075345;28;20027;-63
2021/12/21 07:48:21;;;;;;;15.38;7.35;;;;;;;-1.30;85.95;102765.84;5074903;28;20032;-62
2021/12/21 07:50:47;;;;;;;17.27;7.43;;;;;;;-1.27;85.54;102777.59;5092946;28;20016;-63
2021/12/21 07:53:16;;;;;;;19.77;7.88;;;;;;;-1.40;85.17;102757.81;5093171;28;20027;-64
2021/12/21 07:55:43;;;;;;;21.75;7.95;;;;;;;-1.20;85.38;102781.56;5074677;28;20462;-63
2021/12/21 07:58:10;;;;;;;19.05;7.95;;;;;;;-1.15;85.07;102783.03;5073450;28;20074;-62
2021/12/21 08:00:36;;;;;;;19.98;8.45;;;;;;;-1.17;85.20;102781.44;5090951;28;20056;-64
2021/12/21 08:03:01;;;;;;;18.38;7.82;;;;;;;-1.17;85.33;102794.13;5091982;28;20028;-62
2021/12/21 08:05:31;;;;;;;19.33;8.30;;;;;;;-1.04;84.91;102790.19;5092849;28;20028;-63
2021/12/21 08:08:07;;;;;;;19.10;7.72;;;;;;;-1.11;84.81;102790.50;5093314;28;20020;-63
2021/12/21 08:10:43;;;;;;;17.27;7.60;;;;;;;-1.12;85.16;102797.31;5093559;28;20035;-62
2021/12/21 08:13:09;;;;;;;17.35;8.10;;;;;;;-1.07;84.83;102797.09;5094940;28;20093;-64
2021/12/21 08:15:34;;;;;;;19.90;8.57;;;;;;;-1.08;84.75;102792.94;5096760;28;20106;-63
2021/12/21 08:17:59;;;;;;;26.42;9.02;;;;;;;-1.08;85.04;102798.81;5096814;28;20073;-64
2021/12/21 08:20:27;;;;;;;19.92;8.73;;;;;;;-1.15;84.58;102795.72;5096796;28;20046;-63
2021/12/21 08:22:53;;;;;;;19.10;8.60;;;;;;;-1.23;84.55;102805.34;5077442;28;20024;-64
2021/12/21 08:25:24;;;;;;;19.60;8.45;;;;;;;-1.15;84.95;102812.66;5096413;28;20111;-63
2021/12/21 08:27:55;;;;;;;17.10;7.88;;;;;;;-1.14;84.72;102802.44;5096562;28;20098;-62
2021/12/21 08:30:21;;;;;;;17.17;7.63;;;;;;;-1.07;84.76;102805.53;5096469;28;20024;-63
2021/12/21 08:32:46;;;;;;;18.73;8.20;;;;;;;-1.06;84.56;102807.22;5096316;28;20081;-63
2021/12/21 08:35:14;;;;;;;20.50;8.80;;;;;;;-0.95;84.76;102814.38;5096384;28;20020;-62
2021/12/21 08:37:44;;;;;;;22.58;8.85;;;;;;;-0.89;84.93;102808.22;5096420;28;20028;-61
2021/12/21 08:40:11;;;;;;;22.58;9.40;;;;;;;-0.78;84.79;102801.00;5096209;28;20028;-63
2021/12/21 08:42:38;;;;;;;21.60;9.32;;;;;;;-0.80;84.34;102806.16;5096043;28;20047;-62
2021/12/21 08:45:06;;;;;;;21.92;8.75;;;;;;;-0.93;84.20;102808.34;5078100;28;20074;-64
2021/12/21 08:47:35;;;;;;;19.83;9.18;;;;;;;-0.83;84.78;102800.38;5096418;28;20462;-62
2021/12/21 08:50:00;;;;;;;17.95;8.95;;;;;;;-0.83;84.87;102808.00;5096149;28;20434;-65
2021/12/21 08:52:26;;;;;;;27.70;10.48;;;;;;;-0.58;84.26;102788.28;5077697;28;20110;-64
2021/12/21 08:54:51;;;;;;;24.67;9.85;;;;;;;-0.41;83.14;102792.66;5096532;28;20036;-63
2021/12/21 08:57:16;;;;;;;24.35;9.45;;;;;;;-0.54;84.01;102799.16;5095863;28;20020;-62
2021/12/21 08:59:42;;;;;;;32.10;10.13;;;;;;;-0.43;83.34;102791.06;5075969;28;20028;-64
2021/12/21 09:02:09;;;;;;;22.13;10.45;;;;;;;-0.43;83.22;102798.69;5077077;28;20034;-62
2021/12/21 09:04:35;;;;;;;27.52;10.77;;;;;;;-0.45;83.42;102798.75;5095653;28;20024;-62
2021/12/21 09:07:02;;;;;;;23.98;11.63;;;;;;;-0.36;83.63;102797.53;5095536;28;20031;-63
2021/12/21 09:09:28;;;;;;;25.05;11.48;;;;;;;-0.34;83.56;102794.03;5077519;28;20489;-63
2021/12/21 09:11:53;;;;;;;24.65;11.05;;;;;;;-0.48;84.35;102796.34;5077103;28;20047;-63
2021/12/21 09:14:18;;;;;;;24.75;10.93;;;;;;;-0.24;83.42;102794.47;5095258;28;20028;-61
2021/12/21 09:16:44;;;;;;;27.92;11.50;;;;;;;-0.17;82.97;102802.63;5094169;28;20039;-63
2021/12/21 09:19:09;;;;;;;24.48;11.07;;;;;;;-0.24;83.14;102799.53;5075921;28;20059;-62
2021/12/21 09:21:35;;;;;;;23.98;11.13;;;;;;;-0.16;83.25;102800.03;5095261;28;20023;-63
2021/12/21 09:24:01;;;;;;;25.98;11.02;;;;;;;-0.01;82.75;102801.88;5077264;28;20161;-62
2021/12/21 09:26:27;;;;;;;22.13;11.10;;;;;;;0.01;83.25;102799.28;5096102;28;20511;-62
2021/12/21 09:28:53;;;;;;;21.35;10.60;;;;;;;-0.05;82.77;102791.94;5095719;28;20016;-65
2021/12/21 09:31:18;;;;;;;19.73;10.20;;;;;;;0.02;82.42;102779.78;5076227;28;20046;-64
2021/12/21 09:33:44;;;;;;;25.02;10.80;;;;;;;0.24;82.42;102787.25;5094159;28;20111;-63
2021/12/21 09:36:09;;;;;;;21.58;10.45;;;;;;;0.21;82.38;102789.03;5093796;28;20051;-63
2021/12/21 09:38:35;;;;;;;22.40;10.18;;;;;;;0.30;82.32;102792.88;5076253;28;20024;-65
2021/12/21 09:41:00;;;;;;;23.90;9.88;;;;;;;0.43;81.45;102793.13;5094144;28;20110;-63
2021/12/21 09:43:26;;;;;;;21.45;10.77;;;;;;;0.50;81.46;102789.41;5095027;28;20048;-62
2021/12/21 09:45:51;;;;;;;22.65;10.50;;;;;;;0.51;81.50;102783.41;5077194;28;20015;-65
2021/12/21 09:48:18;;;;;;;24.13;10.95;;;;;;;0.56;81.70;102801.84;5094512;28;20413;-68
2021/12/21 09:50:44;;;;;;;23.95;10.82;;;;;;;0.56;82.19;102806.13;5093033;28;20051;-64
2021/12/21 09:53:10;;;;;;;20.73;10.65;;;;;;;0.51;82.43;102803.78;5094717;28;20070;-64
2021/12/21 09:55:35;;;;;;;23.40;10.25;;;;;;;0.42;82.21;102801.66;5076456;28;20405;-63
2021/12/21 09:58:00;;;;;;;20.20;9.82;;;;;;;0.53;81.48;102806.25;5094814;28;20100;-64
2021/12/21 10:00:31;;;;;;;21.23;10.32;;;;;;;0.56;81.28;102801.84;5093209;28;20028;-65
2021/12/21 10:03:02;;;;;;;27.25;11.13;;;;;;;0.69;82.47;102802.06;5075628;28;20073;-64
2021/12/21 10:05:30;;;;;;;21.13;10.98;;;;;;;0.94;81.00;102806.00;5093640;28;20028;-64
2021/12/21 10:08:01;;;;;;;19.70;9.82;;;;;;;6.59;64.04;102813.75;5092014;28;20482;-67
2021/12/21 10:10:31;;;;;;;20.90;9.05;;;;;;;10.60;49.13;102801.97;5092185;28;20020;-67
2021/12/21 10:13:07;;;;;;;20.52;8.20;;;;;;;12.09;44.74;102788.16;5092247;28;20054;-67
2021/12/21 10:15:38;;;;;;;16.48;7.53;;;;;;;13.02;41.34;102783.34;5092358;28;20028;-67
2021/12/21 10:18:04;;;;;;;15.30;6.97;;;;;;;13.01;40.35;102773.94;5092879;28;20035;-67
2021/12/21 10:20:35;;;;;;;16.83;7.57;;;;;;;13.38;39.79;102770.22;5092864;28;20052;-66
2021/12/21 10:23:08;;;;;;;13.13;7.80;;;;;;;14.13;38.30;102762.44;5094065;28;20066;-66
2021/12/21 10:25:44;;;;;;;15.15;7.25;;;;;;;14.48;37.99;102767.47;5094294;28;20052;-66
2021/12/21 10:28:09;;;;;;;13.80;7.30;;;;;;;14.35;37.53;102760.13;5075953;28;20115;-65
2021/12/21 10:30:47;;;;;;;17.48;7.30;;;;;;;14.33;37.69;102755.13;5094577;28;20051;-65
2021/12/21 10:33:12;;;;;;;15.48;7.50;;;;;;;14.86;36.51;102765.94;5094161;28;20039;-67
2021/12/21 10:35:38;;;;;;;16.00;7.10;;;;;;;15.03;36.37;102749.28;5093573;28;20027;-65
2021/12/21 10:38:05;;;;;;;16.27;7.78;;;;;;;14.79;37.11;102747.59;5093983;28;20034;-66
2021/12/21 10:40:30;;;;;;;14.88;7.53;;;;;;;14.12;38.19;102739.97;5093639;28;20016;-65
2021/12/21 10:43:02;;;;;;;12.82;6.97;;;;;;;10.28;45.85;102740.22;5093698;28;20048;-66
2021/12/21 10:45:34;;;;;;;15.27;7.80;;;;;;;6.76;57.85;102749.97;5094108;28;20035;-67
2021/12/21 10:48:03;;;;;;;18.73;7.80;;;;;;;5.33;61.66;102728.44;5074470;28;20032;-65
2021/12/21 10:50:32;;;;;;;18.55;8.75;;;;;;;4.77;64.74;102740.72;5075229;28;20020;-65
2021/12/21 10:52:58;;;;;;;24.38;9.27;;;;;;;4.40;67.68;102747.41;5093904;28;20027;-65
2021/12/21 10:55:34;;;;;;;21.08;8.95;;;;;;;4.03;67.37;102740.34;5075618;28;20020;-65
2021/12/21 10:58:18;;;;;;;20.52;9.38;;;;;;;3.95;70.08;102736.63;5094037;28;20031;-65
2021/12/21 11:00:53;;;;;;;19.95;9.25;;;;;;;3.80;70.79;102738.41;5093779;28;20037;-65
2021/12/21 11:03:54;;;;;;;18.15;8.80;;;;;;;3.81;71.17;102735.72;5093071;28;20146;-65
2021/12/21 11:06:26;;;;;;;20.80;9.32;;;;;;;3.69;72.32;102733.13;5074941;28;20027;-63
2021/12/21 11:08:54;;;;;;;20.20;9.67;;;;;;;3.73;72.43;102734.56;5092781;28;20016;-64
2021/12/21 11:11:22;;;;;;;21.23;9.10;;;;;;;3.71;71.97;102736.38;5091786;28;20514;-64
2021/12/21 11:14:08;;;;;;;22.77;9.35;;;;;;;3.71;72.71;102738.94;5074656;28;20016;-65
2021/12/21 11:16:38;;;;;;;21.33;8.73;;;;;;;3.84;72.15;102737.28;5092784;28;20020;-66
2021/12/21 11:19:04;;;;;;;18.35;8.45;;;;;;;3.66;71.92;102730.75;5093868;28;20047;-65
2021/12/21 11:21:31;;;;;;;19.92;9.05;;;;;;;3.69;72.15;102726.25;5092940;28;20586;-64
2021/12/21 11:24:01;;;;;;;20.45;9.00;;;;;;;3.52;74.40;102729.84;5073598;28;20597;-64
2021/12/21 11:26:27;;;;;;;18.20;8.95;;;;;;;3.59;73.80;102725.97;5074138;28;20020;-66
2021/12/21 11:28:55;;;;;;;20.75;9.05;;;;;;;3.66;72.87;102730.75;5074911;28;20020;-64
2021/12/21 11:31:20;;;;;;;19.27;8.65;;;;;;;3.55;72.68;102732.22;5093374;28;20054;-65
2021/12/21 11:33:48;;;;;;;18.98;8.63;;;;;;;3.40;72.78;102728.03;5075269;28;20035;-64
2021/12/21 11:38:59;;;;;;;19.65;8.50;;;;;;;3.82;72.13;102726.31;5093280;28;20039;-64
2021/12/21 11:41:25;;;;;;;20.77;8.32;;;;;;;3.85;71.62;102723.56;5093176;28;20028;-64
2021/12/21 11:44:08;;;;;;;19.40;8.63;;;;;;;4.34;71.32;102720.47;5093314;28;20194;-65
2021/12/21 11:46:50;;;;;;;21.95;8.80;;;;;;;4.39;70.50;102710.75;5093602;28;20186;-64
2021/12/21 11:49:22;;;;;;;20.50;8.82;;;;;;;4.52;69.36;102705.69;5097867;28;20097;-65
2021/12/21 11:51:47;;;;;;;17.13;8.30;;;;;;;4.36;70.40;102703.28;5097301;28;20024;-66
2021/12/21 11:54:16;;;;;;;17.70;8.27;;;;;;;4.62;68.78;102682.84;5098095;28;20016;-65
2021/12/21 11:56:42;;;;;;;18.65;8.70;;;;;;;4.53;69.90;102681.72;5097596;28;20473;-70
2021/12/21 11:59:07;;;;;;;17.98;8.43;;;;;;;5.32;67.72;102697.75;5079751;28;20024;-68
2021/12/21 12:01:33;;;;;;;18.83;8.93;;;;;;;5.22;67.18;102694.22;5096862;28;20032;-66
2021/12/21 12:04:09;;;;;;;18.80;8.32;;;;;;;7.40;60.46;102692.03;5078704;28;20022;-66
2021/12/21 12:06:45;;;;;;;17.00;7.43;;;;;;;12.78;45.55;102687.22;5096933;28;20032;-68
2021/12/21 12:09:20;;;;;;;16.85;7.53;;;;;;;14.83;39.58;102677.78;5098439;28;20050;-67
2021/12/21 12:11:45;;;;;;;13.82;6.80;;;;;;;16.01;36.77;102678.34;5098163;28;20039;-68
2021/12/21 12:14:19;;;;;;;16.23;7.40;;;;;;;16.33;36.42;102678.22;5098918;28;20028;-68
2021/12/21 12:16:54;;;;;;;13.57;6.97;;;;;;;16.69;35.63;102676.53;5099381;28;20039;-69
2021/12/21 12:19:26;;;;;;;11.43;6.55;;;;;;;16.70;36.18;102666.88;5099451;28;20035;-67
2021/12/21 12:22:04;;;;;;;12.75;6.95;;;;;;;16.58;34.77;102661.31;5099199;28;20024;-66
2021/12/21 12:24:41;;;;;;;12.20;6.40;;;;;;;16.73;34.12;102657.88;5100346;28;20375;-66
2021/12/21 12:27:11;;;;;;;14.82;6.80;;;;;;;16.09;34.95;102664.44;5100290;28;20016;-66
2021/12/21 12:29:50;;;;;;;13.57;6.72;;;;;;;16.76;34.55;102662.75;5097333;28;20020;-66
2021/12/21 12:32:18;;;;;;;13.95;6.47;;;;;;;16.97;34.24;102662.00;5078813;28;20065;-67
2021/12/21 12:34:44;;;;;;;11.80;6.82;;;;;;;17.06;33.92;102646.06;5097484;28;20070;-67